Time;durP1;ratioP1;P1;durP2;ratioP2;P2;SDS_P1;SDS_P2;PMS_P1;PMS_P2;Temp;Humidity;BMP_temperature;BMP_pressure;BME280_temperature;BME280_humidity;BME280_pressure;Samples;Min_cycle;Max_cycle;Signal;HPM_P1;HPM_P2
2020/12/04 00:01:41;;;;;;;21.23;13.95;;;;;;;;;;5086949;28;20640;-78
2020/12/04 00:04:07;;;;;;;23.42;15.60;;;;;;;;;;5075413;28;20180;-79
2020/12/04 00:06:33;;;;;;;24.67;15.40;;;;;;;;;;5088357;28;20167;-78
2020/12/04 00:09:00;;;;;;;22.92;14.30;;;;;;;;;;5096672;28;20745;-79
2020/12/04 00:11:27;;;;;;;23.65;14.75;;;;;;;;;;5100865;28;20172;-76
2020/12/04 00:13:53;;;;;;;22.48;15.07;;;;;;;;;;5093474;28;20192;-75
2020/12/04 00:16:19;;;;;;;20.88;14.43;;;;;;;;;;5096412;28;20198;-78
2020/12/04 00:18:45;;;;;;;20.20;14.07;;;;;;;;;;5097259;28;20199;-80
2020/12/04 00:21:14;;;;;;;24.85;15.07;;;;;;;;;;5096739;28;20175;-77
2020/12/04 00:23:41;;;;;;;22.63;15.40;;;;;;;;;;5078800;28;20187;-77
2020/12/04 00:26:07;;;;;;;23.27;15.23;;;;;;;;;;5084788;28;20167;-76
2020/12/04 00:28:33;;;;;;;22.48;14.57;;;;;;;;;;5096935;28;20282;-77
2020/12/04 00:30:59;;;;;;;23.67;15.13;;;;;;;;;;5095978;28;20211;-78
2020/12/04 00:33:25;;;;;;;22.33;15.07;;;;;;;;;;5094843;28;20237;-79
2020/12/04 00:35:51;;;;;;;24.95;16.05;;;;;;;;;;5096275;28;20171;-78
2020/12/04 00:38:17;;;;;;;23.70;15.73;;;;;;;;;;5096631;28;20198;-79
2020/12/04 00:40:43;;;;;;;21.42;14.63;;;;;;;;;;5096585;28;20168;-77
2020/12/04 00:43:09;;;;;;;29.52;16.80;;;;;;;;;;5091514;28;20269;-78
2020/12/04 00:45:35;;;;;;;23.30;14.75;;;;;;;;;;5087191;28;20179;-79
2020/12/04 00:48:01;;;;;;;23.17;13.93;;;;;;;;;;5096508;28;20538;-80
2020/12/04 00:50:28;;;;;;;21.90;14.30;;;;;;;;;;5085816;28;20597;-77
2020/12/04 00:52:54;;;;;;;23.02;15.10;;;;;;;;;;5076539;28;20203;-78
2020/12/04 00:55:20;;;;;;;22.50;14.02;;;;;;;;;;5078587;28;20529;-78
2020/12/04 00:57:46;;;;;;;24.25;14.52;;;;;;;;;;5077712;28;20208;-79
2020/12/04 01:00:12;;;;;;;21.52;14.85;;;;;;;;;;5082651;28;20175;-76
2020/12/04 01:02:38;;;;;;;22.08;14.05;;;;;;;;;;5091026;28;20254;-77
2020/12/04 01:05:05;;;;;;;22.70;15.02;;;;;;;;;;5092405;28;20265;-78
2020/12/04 01:07:31;;;;;;;22.20;14.13;;;;;;;;;;5091155;28;20627;-77
2020/12/04 01:09:57;;;;;;;25.13;15.13;;;;;;;;;;5090068;28;20183;-78
2020/12/04 01:12:23;;;;;;;22.88;14.55;;;;;;;;;;5092269;28;20203;-76
2020/12/04 01:14:49;;;;;;;25.60;15.40;;;;;;;;;;5095617;28;20176;-77
2020/12/04 01:17:16;;;;;;;23.27;15.00;;;;;;;;;;5090778;28;20168;-78
2020/12/04 01:19:42;;;;;;;22.23;15.02;;;;;;;;;;5075631;28;20172;-77
2020/12/04 01:22:08;;;;;;;23.83;15.00;;;;;;;;;;5085189;28;20587;-77
2020/12/04 01:24:34;;;;;;;21.77;14.63;;;;;;;;;;5075193;28;20225;-76
2020/12/04 01:27:00;;;;;;;24.92;14.57;;;;;;;;;;5089042;28;20237;-78
2020/12/04 01:29:26;;;;;;;20.73;14.10;;;;;;;;;;5095597;28;20173;-78
2020/12/04 01:31:52;;;;;;;23.30;15.13;;;;;;;;;;5091763;28;20184;-76
2020/12/04 01:34:18;;;;;;;22.08;14.88;;;;;;;;;;5095417;28;20175;-78
2020/12/04 01:36:44;;;;;;;21.27;14.25;;;;;;;;;;5095418;28;20186;-77
2020/12/04 01:39:10;;;;;;;22.60;14.52;;;;;;;;;;5096342;28;20525;-77
2020/12/04 01:41:36;;;;;;;24.75;14.60;;;;;;;;;;5091498;28;20643;-77
2020/12/04 01:44:04;;;;;;;25.10;15.55;;;;;;;;;;5095513;28;20179;-77
2020/12/04 01:46:30;;;;;;;20.77;15.05;;;;;;;;;;5090993;28;20679;-78
2020/12/04 01:48:56;;;;;;;21.80;13.88;;;;;;;;;;5083656;28;20196;-77
2020/12/04 01:51:23;;;;;;;20.35;13.68;;;;;;;;;;5083849;28;20545;-79
2020/12/04 01:53:50;;;;;;;19.90;13.90;;;;;;;;;;5075221;28;20589;-77
2020/12/04 01:56:16;;;;;;;20.88;13.82;;;;;;;;;;5086968;28;20254;-77
2020/12/04 01:58:42;;;;;;;25.95;16.02;;;;;;;;;;5082642;28;20200;-78
2020/12/04 02:01:12;;;;;;;22.00;14.82;;;;;;;;;;5093618;28;20174;-77
2020/12/04 02:03:38;;;;;;;25.15;15.60;;;;;;;;;;5091255;28;20172;-76
2020/12/04 02:06:06;;;;;;;24.35;14.48;;;;;;;;;;5084028;28;20219;-77
2020/12/04 02:08:39;;;;;;;23.67;16.15;;;;;;;;;;5074776;28;20573;-77
2020/12/04 02:11:20;;;;;;;26.48;15.43;;;;;;;;;;5089481;28;20180;-79
2020/12/04 02:13:47;;;;;;;24.05;15.40;;;;;;;;;;5093675;28;20206;-77
2020/12/04 02:16:17;;;;;;;24.65;14.77;;;;;;;;;;5094691;28;20186;-77
2020/12/04 02:18:44;;;;;;;25.42;15.65;;;;;;;;;;5081544;28;20264;-78
2020/12/04 02:21:10;;;;;;;24.42;14.93;;;;;;;;;;5080476;28;20180;-77
2020/12/04 02:23:36;;;;;;;25.15;15.63;;;;;;;;;;5092705;28;20636;-76
2020/12/04 02:26:03;;;;;;;26.73;15.93;;;;;;;;;;5080400;28;20188;-76
2020/12/04 02:28:39;;;;;;;23.63;15.10;;;;;;;;;;5078502;28;20273;-76
2020/12/04 02:31:05;;;;;;;27.30;16.15;;;;;;;;;;5084489;28;20211;-76
2020/12/04 02:33:35;;;;;;;24.90;15.48;;;;;;;;;;5083494;28;20253;-78
2020/12/04 02:36:01;;;;;;;26.75;16.42;;;;;;;;;;5093685;28;20179;-78
2020/12/04 02:38:28;;;;;;;25.25;15.38;;;;;;;;;;5094124;28;20260;-78
2020/12/04 02:40:54;;;;;;;23.50;14.77;;;;;;;;;;5091262;28;20486;-77
2020/12/04 02:43:21;;;;;;;26.80;16.02;;;;;;;;;;5088608;28;20187;-77
2020/12/04 02:45:47;;;;;;;25.05;16.13;;;;;;;;;;5093898;28;20187;-77
2020/12/04 02:48:14;;;;;;;27.85;17.13;;;;;;;;;;5081953;28;20581;-78
2020/12/04 02:50:40;;;;;;;25.83;16.00;;;;;;;;;;5086168;28;20225;-76
2020/12/04 02:53:07;;;;;;;23.83;14.40;;;;;;;;;;5091419;28;20757;-78
2020/12/04 02:55:33;;;;;;;25.35;15.18;;;;;;;;;;5093564;28;20168;-79
2020/12/04 02:57:59;;;;;;;29.13;16.58;;;;;;;;;;5093669;28;20200;-79
2020/12/04 03:00:26;;;;;;;27.65;15.88;;;;;;;;;;5093760;28;20630;-78
2020/12/04 03:02:52;;;;;;;27.63;16.65;;;;;;;;;;5093096;28;20218;-77
2020/12/04 03:05:18;;;;;;;40.45;17.40;;;;;;;;;;5091933;28;20180;-81
2020/12/04 03:07:44;;;;;;;30.73;17.73;;;;;;;;;;5086929;28;20601;-77
2020/12/04 03:10:10;;;;;;;24.70;15.50;;;;;;;;;;5087076;28;20528;-76
2020/12/04 03:12:39;;;;;;;28.70;16.45;;;;;;;;;;5093033;28;20282;-77
2020/12/04 03:15:06;;;;;;;25.98;15.38;;;;;;;;;;5085030;28;20167;-77
2020/12/04 03:17:32;;;;;;;23.42;16.00;;;;;;;;;;5086611;28;20197;-77
2020/12/04 03:19:59;;;;;;;29.60;16.67;;;;;;;;;;5092867;28;20172;-78
2020/12/04 03:22:26;;;;;;;24.40;15.30;;;;;;;;;;5073064;28;20673;-79
2020/12/04 03:24:52;;;;;;;27.20;17.05;;;;;;;;;;5081335;28;20184;-78
2020/12/04 03:27:18;;;;;;;28.13;15.73;;;;;;;;;;5084219;28;20184;-76
2020/12/04 03:29:47;;;;;;;31.50;16.05;;;;;;;;;;5079994;28;20179;-79
2020/12/04 03:32:13;;;;;;;27.02;16.20;;;;;;;;;;5087543;28;20196;-77
2020/12/04 03:34:39;;;;;;;27.55;16.25;;;;;;;;;;5092100;28;20171;-76
2020/12/04 03:37:05;;;;;;;29.33;17.05;;;;;;;;;;5073528;28;20180;-76
2020/12/04 03:39:31;;;;;;;25.85;15.48;;;;;;;;;;5073773;28;20167;-77
2020/12/04 03:41:57;;;;;;;26.45;16.85;;;;;;;;;;5084372;28;20606;-79
2020/12/04 03:44:23;;;;;;;29.45;17.25;;;;;;;;;;5091560;28;20202;-77
2020/12/04 03:46:49;;;;;;;26.70;15.88;;;;;;;;;;5074445;28;20663;-76
2020/12/04 03:49:15;;;;;;;27.77;16.35;;;;;;;;;;5087757;28;20192;-77
2020/12/04 03:51:42;;;;;;;27.85;17.02;;;;;;;;;;5093206;28;20218;-76
2020/12/04 03:54:08;;;;;;;29.58;16.75;;;;;;;;;;5078138;28;20627;-77
2020/12/04 03:56:34;;;;;;;26.95;16.85;;;;;;;;;;5085763;28;20228;-77
2020/12/04 03:59:01;;;;;;;27.70;15.82;;;;;;;;;;5093024;28;20206;-76
2020/12/04 04:01:27;;;;;;;27.10;17.48;;;;;;;;;;5084835;28;20172;-78
2020/12/04 04:03:53;;;;;;;27.92;16.08;;;;;;;;;;5073697;28;20188;-77
2020/12/04 04:06:19;;;;;;;25.95;14.75;;;;;;;;;;5081708;28;20199;-76
2020/12/04 04:08:45;;;;;;;26.40;16.95;;;;;;;;;;5087893;28;20219;-77
2020/12/04 04:11:11;;;;;;;24.60;15.40;;;;;;;;;;5096166;28;20179;-78
2020/12/04 04:13:37;;;;;;;28.67;15.80;;;;;;;;;;5087657;28;20199;-78
2020/12/04 04:16:05;;;;;;;25.50;15.10;;;;;;;;;;5087262;28;20183;-78
2020/12/04 04:18:31;;;;;;;24.17;14.50;;;;;;;;;;5089364;28;20199;-78
2020/12/04 04:20:57;;;;;;;25.65;16.00;;;;;;;;;;5073014;28;20172;-77
2020/12/04 04:23:23;;;;;;;27.52;16.00;;;;;;;;;;5073023;28;20176;-77
2020/12/04 04:25:49;;;;;;;27.38;16.33;;;;;;;;;;5086334;28;20180;-76
2020/12/04 04:28:15;;;;;;;27.50;15.85;;;;;;;;;;5072937;28;20192;-77
2020/12/04 04:30:41;;;;;;;24.48;14.80;;;;;;;;;;5075429;28;20180;-76
2020/12/04 04:33:08;;;;;;;28.73;15.48;;;;;;;;;;5082170;28;20191;-76
2020/12/04 04:35:34;;;;;;;27.45;16.02;;;;;;;;;;5081319;28;20186;-77
2020/12/04 04:38:01;;;;;;;29.40;16.30;;;;;;;;;;5095494;28;20206;-76
2020/12/04 04:40:27;;;;;;;23.25;15.80;;;;;;;;;;5094866;28;20178;-75
2020/12/04 04:43:25;;;;;;;26.45;16.15;;;;;;;;;;5084914;28;20188;-77
2020/12/04 04:45:52;;;;;;;25.52;15.48;;;;;;;;;;5085915;28;20291;-77
2020/12/04 04:48:26;;;;;;;25.98;16.42;;;;;;;;;;5096308;28;20684;-78
2020/12/04 04:51:01;;;;;;;24.10;15.75;;;;;;;;;;5090016;28;20182;-78
2020/12/04 04:53:28;;;;;;;24.60;15.65;;;;;;;;;;5096397;28;20232;-76
2020/12/04 04:55:57;;;;;;;25.02;15.50;;;;;;;;;;5096363;28;20230;-75
2020/12/04 04:58:23;;;;;;;26.77;16.90;;;;;;;;;;5096055;28;20269;-76
2020/12/04 05:00:49;;;;;;;28.80;16.08;;;;;;;;;;5093742;28;20178;-76
2020/12/04 05:03:15;;;;;;;24.25;15.00;;;;;;;;;;5096124;28;20270;-76
2020/12/04 05:05:45;;;;;;;24.67;15.02;;;;;;;;;;5085487;28;20184;-77
2020/12/04 05:08:15;;;;;;;25.73;15.70;;;;;;;;;;5077054;28;20219;-79
2020/12/04 05:10:41;;;;;;;27.30;16.80;;;;;;;;;;5104247;28;20516;-78
2020/12/04 05:13:07;;;;;;;28.25;16.30;;;;;;;;;;5090128;28;20246;-77
2020/12/04 05:15:34;;;;;;;26.92;16.30;;;;;;;;;;5075408;28;20172;-78
2020/12/04 05:18:00;;;;;;;23.48;14.60;;;;;;;;;;5088895;28;20643;-78
2020/12/04 05:20:26;;;;;;;29.58;16.77;;;;;;;;;;5092106;28;20171;-75
2020/12/04 05:22:56;;;;;;;30.33;17.15;;;;;;;;;;5090240;28;20176;-77
2020/12/04 05:25:22;;;;;;;26.63;15.68;;;;;;;;;;5075033;28;20563;-78
2020/12/04 05:27:49;;;;;;;28.90;16.80;;;;;;;;;;5088626;28;20689;-78
2020/12/04 05:30:24;;;;;;;24.88;14.82;;;;;;;;;;5075632;28;20184;-75
2020/12/04 05:33:00;;;;;;;30.20;16.20;;;;;;;;;;5088328;28;20540;-78
2020/12/04 05:35:26;;;;;;;25.30;15.00;;;;;;;;;;5084942;28;20179;-76
2020/12/04 05:38:11;;;;;;;26.15;16.42;;;;;;;;;;5095806;28;20217;-76
2020/12/04 05:40:38;;;;;;;23.30;15.35;;;;;;;;;;5089358;28;20587;-76
2020/12/04 05:43:05;;;;;;;34.17;15.68;;;;;;;;;;5087988;28;20179;-77
2020/12/04 05:45:31;;;;;;;30.85;17.58;;;;;;;;;;5089294;28;20290;-78
2020/12/04 05:47:57;;;;;;;23.92;15.10;;;;;;;;;;5094541;28;20200;-76
2020/12/04 05:50:24;;;;;;;30.60;17.20;;;;;;;;;;5092664;28;20187;-77
2020/12/04 05:52:50;;;;;;;27.85;16.17;;;;;;;;;;5082445;28;20257;-77
2020/12/04 05:55:16;;;;;;;31.23;17.65;;;;;;;;;;5074357;28;20173;-78
2020/12/04 05:57:43;;;;;;;29.50;18.13;;;;;;;;;;5080692;28;20206;-77
2020/12/04 06:00:09;;;;;;;27.90;15.98;;;;;;;;;;5075346;28;20180;-76
2020/12/04 06:02:35;;;;;;;27.02;16.70;;;;;;;;;;5079304;28;20179;-75
2020/12/04 06:05:01;;;;;;;28.63;17.20;;;;;;;;;;5088831;28;20175;-78
2020/12/04 06:07:28;;;;;;;26.85;16.23;;;;;;;;;;5094700;28;20203;-78
2020/12/04 06:09:57;;;;;;;29.83;17.92;;;;;;;;;;5086618;28;20543;-75
2020/12/04 06:12:24;;;;;;;29.33;17.10;;;;;;;;;;5100149;28;20202;-76
2020/12/04 06:14:50;;;;;;;27.17;17.13;;;;;;;;;;5087449;28;20313;-76
2020/12/04 06:17:17;;;;;;;30.70;18.08;;;;;;;;;;5081414;28;20178;-76
2020/12/04 06:19:45;;;;;;;24.67;16.08;;;;;;;;;;5094063;28;20568;-78
2020/12/04 06:22:13;;;;;;;28.98;17.63;;;;;;;;;;5090593;28;20537;-77
2020/12/04 06:24:55;;;;;;;26.60;18.00;;;;;;;;;;5092763;28;20636;-76
2020/12/04 06:27:33;;;;;;;30.67;17.23;;;;;;;;;;5094228;28;20223;-78
2020/12/04 06:29:59;;;;;;;28.38;16.90;;;;;;;;;;5088250;28;20575;-78
2020/12/04 06:32:40;;;;;;;30.80;18.27;;;;;;;;;;5094064;28;20206;-77
2020/12/04 06:35:07;;;;;;;26.50;17.02;;;;;;;;;;5087880;28;20171;-78
2020/12/04 06:37:43;;;;;;;29.17;18.58;;;;;;;;;;5079457;28;20280;-78
2020/12/04 06:40:35;;;;;;;29.85;18.15;;;;;;;;;;5083306;28;20179;-76
2020/12/04 06:43:02;;;;;;;36.05;18.58;;;;;;;;;;5079160;28;20191;-78
2020/12/04 06:45:47;;;;;;;30.98;19.50;;;;;;;;;;5091957;28;20533;-78
2020/12/04 06:48:14;;;;;;;42.33;23.13;;;;;;;;;;5088516;28;20200;-77
2020/12/04 06:50:41;;;;;;;50.80;25.00;;;;;;;;;;5078469;28;20687;-78
2020/12/04 06:53:08;;;;;;;37.92;21.02;;;;;;;;;;5093818;28;20203;-77
2020/12/04 06:55:34;;;;;;;31.50;19.65;;;;;;;;;;5094587;28;20189;-77
2020/12/04 06:58:00;;;;;;;33.13;19.83;;;;;;;;;;5088428;28;20212;-76
2020/12/04 07:00:27;;;;;;;30.55;18.70;;;;;;;;;;5085341;28;20206;-77
2020/12/04 07:02:53;;;;;;;32.25;19.27;;;;;;;;;;5088530;28;20176;-75
2020/12/04 07:05:23;;;;;;;28.83;16.85;;;;;;;;;;5093961;28;20240;-78
2020/12/04 07:07:49;;;;;;;33.42;19.15;;;;;;;;;;5093797;28;20215;-77
2020/12/04 07:10:15;;;;;;;32.10;18.88;;;;;;;;;;5101390;28;20178;-78
2020/12/04 07:12:41;;;;;;;31.50;19.10;;;;;;;;;;5078833;28;20203;-77
2020/12/04 07:15:08;;;;;;;29.70;18.73;;;;;;;;;;5093270;28;20179;-77
2020/12/04 07:17:34;;;;;;;34.35;18.77;;;;;;;;;;5093973;28;20195;-76
2020/12/04 07:20:00;;;;;;;29.67;19.10;;;;;;;;;;5093375;28;20952;-77
2020/12/04 07:22:27;;;;;;;32.75;19.75;;;;;;;;;;5073157;28;20194;-76
2020/12/04 07:24:54;;;;;;;32.08;19.95;;;;;;;;;;5073613;28;20637;-76
2020/12/04 07:27:25;;;;;;;33.33;19.52;;;;;;;;;;5083906;28;20199;-77
2020/12/04 07:29:51;;;;;;;37.05;19.95;;;;;;;;;;5073742;28;20188;-77
2020/12/04 07:32:20;;;;;;;34.35;18.00;;;;;;;;;;5073195;28;20180;-77
2020/12/04 07:34:46;;;;;;;28.65;18.30;;;;;;;;;;5091108;28;20207;-77
2020/12/04 07:37:12;;;;;;;31.67;19.00;;;;;;;;;;5093295;28;20175;-79
2020/12/04 07:39:39;;;;;;;35.15;19.88;;;;;;;;;;5093360;28;20179;-79
2020/12/04 07:42:07;;;;;;;32.85;19.65;;;;;;;;;;5094153;28;20167;-77
2020/12/04 07:44:33;;;;;;;29.25;19.80;;;;;;;;;;5090873;28;20167;-78
2020/12/04 07:47:03;;;;;;;32.05;19.38;;;;;;;;;;5082491;28;20168;-77
2020/12/04 07:49:30;;;;;;;33.03;19.10;;;;;;;;;;5086365;28;20175;-77
2020/12/04 07:52:07;;;;;;;34.67;20.00;;;;;;;;;;5080794;28;20183;-77
2020/12/04 07:54:34;;;;;;;33.50;19.88;;;;;;;;;;5074592;28;20575;-77
2020/12/04 07:57:01;;;;;;;37.40;20.77;;;;;;;;;;5088738;28;20183;-76
2020/12/04 07:59:29;;;;;;;30.92;20.08;;;;;;;;;;5084266;28;20172;-76
2020/12/04 08:01:55;;;;;;;35.08;19.73;;;;;;;;;;5080427;28;20176;-78
2020/12/04 08:04:22;;;;;;;34.20;20.00;;;;;;;;;;5069376;28;20184;-77
2020/12/04 08:06:48;;;;;;;31.70;19.55;;;;;;;;;;5079285;28;20225;-77
2020/12/04 08:09:19;;;;;;;34.42;18.88;;;;;;;;;;5074438;28;20224;-78
2020/12/04 08:11:54;;;;;;;34.58;20.17;;;;;;;;;;5080333;28;20232;-78
2020/12/04 08:14:27;;;;;;;35.70;20.60;;;;;;;;;;5082827;28;20199;-78
2020/12/04 08:16:54;;;;;;;33.35;20.58;;;;;;;;;;5076985;28;20259;-77
2020/12/04 08:19:23;;;;;;;31.42;19.00;;;;;;;;;;5090135;28;20623;-77
2020/12/04 08:22:08;;;;;;;30.00;18.50;;;;;;;;;;5074645;28;20262;-77
2020/12/04 08:25:03;;;;;;;31.20;18.52;;;;;;;;;;5084917;28;20193;-77
2020/12/04 08:27:29;;;;;;;31.33;19.67;;;;;;;;;;5084675;28;20195;-78
2020/12/04 08:30:22;;;;;;;30.77;19.02;;;;;;;;;;5088082;28;20203;-78
2020/12/04 08:32:54;;;;;;;29.35;18.33;;;;;;;;;;5077649;28;20261;-77
2020/12/04 08:35:24;;;;;;;33.40;20.25;;;;;;;;;;5092714;28;20183;-77
2020/12/04 08:37:51;;;;;;;32.30;19.25;;;;;;;;;;5089484;28;20258;-77
2020/12/04 08:40:23;;;;;;;31.77;19.45;;;;;;;;;;5072765;28;20606;-77
2020/12/04 08:42:50;;;;;;;30.17;18.75;;;;;;;;;;5090408;28;20180;-77
2020/12/04 08:45:16;;;;;;;29.58;18.38;;;;;;;;;;5092387;28;20186;-75
2020/12/04 08:47:43;;;;;;;32.45;18.60;;;;;;;;;;5083846;28;20200;-78
2020/12/04 08:50:11;;;;;;;30.20;18.35;;;;;;;;;;5081116;28;20633;-78
2020/12/04 08:52:38;;;;;;;28.40;18.13;;;;;;;;;;5072912;28;20703;-78
2020/12/04 08:55:05;;;;;;;31.70;17.73;;;;;;;;;;5092557;28;20191;-78
2020/12/04 08:57:31;;;;;;;32.17;20.15;;;;;;;;;;5092422;28;20210;-77
2020/12/04 08:59:57;;;;;;;27.73;19.02;;;;;;;;;;5092219;28;20250;-77
2020/12/04 09:02:23;;;;;;;30.52;18.77;;;;;;;;;;5092268;28;20218;-79
2020/12/04 09:04:49;;;;;;;31.67;19.10;;;;;;;;;;5083339;28;20192;-78
2020/12/04 09:07:15;;;;;;;30.60;19.70;;;;;;;;;;5072107;28;20184;-78
2020/12/04 09:09:41;;;;;;;30.77;18.95;;;;;;;;;;5092723;28;20197;-77
2020/12/04 09:12:07;;;;;;;33.53;19.85;;;;;;;;;;5082070;28;20518;-78
2020/12/04 09:14:33;;;;;;;31.75;17.90;;;;;;;;;;5082156;28;20533;-76
2020/12/04 09:16:59;;;;;;;31.25;19.40;;;;;;;;;;5078427;28;20176;-78
2020/12/04 09:19:25;;;;;;;32.20;19.50;;;;;;;;;;5090003;28;20203;-79
2020/12/04 09:21:51;;;;;;;34.85;19.20;;;;;;;;;;5089439;28;20230;-79
2020/12/04 09:24:17;;;;;;;31.23;17.75;;;;;;;;;;5071375;28;20246;-80
2020/12/04 09:26:43;;;;;;;29.13;17.60;;;;;;;;;;5076262;28;20208;-78
2020/12/04 09:29:09;;;;;;;28.88;19.33;;;;;;;;;;5091625;28;20191;-78
2020/12/04 09:31:35;;;;;;;29.08;18.83;;;;;;;;;;5087202;28;20240;-79
2020/12/04 09:34:01;;;;;;;27.98;17.92;;;;;;;;;;5090279;28;20692;-78
2020/12/04 09:36:27;;;;;;;28.90;17.73;;;;;;;;;;5091792;28;20502;-77
2020/12/04 09:38:53;;;;;;;32.72;18.85;;;;;;;;;;5091585;28;20296;-78
2020/12/04 09:41:19;;;;;;;28.63;17.60;;;;;;;;;;5088934;28;20644;-78
2020/12/04 09:43:46;;;;;;;27.77;17.88;;;;;;;;;;5088270;28;20191;-78
2020/12/04 09:46:12;;;;;;;29.70;18.73;;;;;;;;;;5091522;28;20218;-78
2020/12/04 09:48:38;;;;;;;28.42;17.88;;;;;;;;;;5076103;28;20231;-77
2020/12/04 09:51:04;;;;;;;27.63;18.10;;;;;;;;;;5089742;28;20211;-77
2020/12/04 09:53:30;;;;;;;30.27;19.00;;;;;;;;;;5091281;28;20891;-77
2020/12/04 09:55:56;;;;;;;31.33;18.35;;;;;;;;;;5086564;28;20900;-77
2020/12/04 09:58:22;;;;;;;34.63;18.20;;;;;;;;;;5070871;28;20192;-79
2020/12/04 10:00:48;;;;;;;30.90;18.30;;;;;;;;;;5088463;28;20560;-78
2020/12/04 10:03:14;;;;;;;30.40;18.77;;;;;;;;;;5091136;28;20223;-78
2020/12/04 10:05:40;;;;;;;29.25;18.92;;;;;;;;;;5090766;28;20210;-78
2020/12/04 10:08:06;;;;;;;27.75;17.52;;;;;;;;;;5086076;28;20231;-77
2020/12/04 10:10:32;;;;;;;30.02;19.95;;;;;;;;;;5082101;28;20179;-77
2020/12/04 10:12:58;;;;;;;29.50;17.33;;;;;;;;;;5089077;28;20691;-76
2020/12/04 10:15:24;;;;;;;34.22;18.63;;;;;;;;;;5090390;28;20183;-77
2020/12/04 10:17:50;;;;;;;26.25;17.45;;;;;;;;;;5072065;28;20192;-79
2020/12/04 10:20:16;;;;;;;32.00;19.70;;;;;;;;;;5089952;28;20170;-79
2020/12/04 10:22:42;;;;;;;30.60;18.80;;;;;;;;;;5081900;28;20190;-77
2020/12/04 10:25:08;;;;;;;35.80;22.80;;;;;;;;;;5090016;28;20179;-76
2020/12/04 10:27:34;;;;;;;30.25;18.98;;;;;;;;;;5080549;28;20225;-78
2020/12/04 10:30:00;;;;;;;34.45;18.55;;;;;;;;;;5090438;28;20175;-76
2020/12/04 10:32:26;;;;;;;29.65;18.38;;;;;;;;;;5087570;28;20207;-75
2020/12/04 10:34:52;;;;;;;31.52;19.33;;;;;;;;;;5078478;28;20172;-75
2020/12/04 10:37:18;;;;;;;27.70;18.50;;;;;;;;;;5074021;28;20179;-76
2020/12/04 10:39:44;;;;;;;31.50;19.13;;;;;;;;;;5086536;28;20559;-76
2020/12/04 10:42:10;;;;;;;31.25;18.75;;;;;;;;;;5080672;28;20180;-77
2020/12/04 10:44:49;;;;;;;27.58;17.20;;;;;;;;;;5088110;28;20186;-76
2020/12/04 10:47:15;;;;;;;27.80;18.65;;;;;;;;;;5085561;28;20173;-78
2020/12/04 10:49:41;;;;;;;32.70;19.15;;;;;;;;;;5090277;28;20532;-76
2020/12/04 10:52:07;;;;;;;30.58;18.55;;;;;;;;;;5088664;28;20571;-77
2020/12/04 10:54:33;;;;;;;30.70;18.05;;;;;;;;;;5082997;28;20175;-77
2020/12/04 10:56:59;;;;;;;32.22;19.00;;;;;;;;;;5089858;28;20183;-78
2020/12/04 10:59:25;;;;;;;33.17;19.23;;;;;;;;;;5069839;28;20674;-77
2020/12/04 11:01:56;;;;;;;26.27;17.50;;;;;;;;;;5080865;28;20556;-76
2020/12/04 11:07:07;;;;;;;30.77;18.45;;;;;;;;;;5079305;28;20838;-77
2020/12/04 11:09:33;;;;;;;29.77;18.42;;;;;;;;;;5074914;28;20322;-78
2020/12/04 11:11:59;;;;;;;33.15;20.25;;;;;;;;;;5086059;28;20824;-78
2020/12/04 11:14:25;;;;;;;29.60;18.58;;;;;;;;;;5087450;28;20234;-78
2020/12/04 11:16:52;;;;;;;27.80;19.17;;;;;;;;;;5089527;28;20557;-77
2020/12/04 11:19:18;;;;;;;29.00;18.88;;;;;;;;;;5078712;28;20200;-77
2020/12/04 11:21:44;;;;;;;30.83;19.02;;;;;;;;;;5083291;28;20180;-77
2020/12/04 11:24:10;;;;;;;31.50;19.00;;;;;;;;;;5069276;28;20186;-76
2020/12/04 11:26:36;;;;;;;30.15;17.80;;;;;;;;;;5081270;28;20183;-77
2020/12/04 11:29:02;;;;;;;33.78;18.25;;;;;;;;;;5073997;28;20659;-77
2020/12/04 11:31:28;;;;;;;30.70;18.13;;;;;;;;;;5078912;28;20246;-80
2020/12/04 11:33:54;;;;;;;27.83;18.27;;;;;;;;;;5088607;28;20610;-77
2020/12/04 11:36:20;;;;;;;26.55;17.30;;;;;;;;;;5086065;28;20169;-78
2020/12/04 11:38:46;;;;;;;25.52;17.52;;;;;;;;;;5079245;28;20188;-77
2020/12/04 11:41:12;;;;;;;28.27;18.88;;;;;;;;;;5089646;28;20282;-77
2020/12/04 11:43:38;;;;;;;32.97;19.50;;;;;;;;;;5087722;28;20229;-78
2020/12/04 11:46:05;;;;;;;29.13;18.70;;;;;;;;;;5088919;28;20179;-77
2020/12/04 11:48:31;;;;;;;29.58;18.75;;;;;;;;;;5080959;28;20211;-78
2020/12/04 11:50:57;;;;;;;28.48;18.85;;;;;;;;;;5072794;28;20188;-78
2020/12/04 11:53:23;;;;;;;31.70;18.85;;;;;;;;;;5082221;28;20245;-79
2020/12/04 11:55:50;;;;;;;31.85;19.10;;;;;;;;;;5091568;28;20176;-76
2020/12/04 11:58:16;;;;;;;25.52;19.08;;;;;;;;;;5081230;28;20196;-76
2020/12/04 12:00:42;;;;;;;25.63;18.48;;;;;;;;;;5080288;28;20648;-77
2020/12/04 12:03:08;;;;;;;29.15;18.00;;;;;;;;;;5084051;28;20182;-78
2020/12/04 12:05:36;;;;;;;28.13;17.85;;;;;;;;;;5089305;28;20544;-80
2020/12/04 12:08:03;;;;;;;26.80;17.75;;;;;;;;;;5085541;28;20640;-76
2020/12/04 12:10:29;;;;;;;24.63;18.05;;;;;;;;;;5088639;28;20182;-78
2020/12/04 12:12:55;;;;;;;25.48;17.98;;;;;;;;;;5074903;28;20227;-78
2020/12/04 12:15:21;;;;;;;25.20;18.00;;;;;;;;;;5081623;28;20224;-78
2020/12/04 12:17:47;;;;;;;27.70;18.25;;;;;;;;;;5080748;28;20200;-77
2020/12/04 12:20:13;;;;;;;25.17;16.70;;;;;;;;;;5079110;28;20184;-77
2020/12/04 12:22:39;;;;;;;25.42;18.15;;;;;;;;;;5085465;28;20233;-77
2020/12/04 12:25:05;;;;;;;26.83;17.40;;;;;;;;;;5068780;28;20189;-77
2020/12/04 12:27:31;;;;;;;26.33;17.45;;;;;;;;;;5075258;28;20199;-78
2020/12/04 12:29:57;;;;;;;30.70;18.25;;;;;;;;;;5089102;28;20536;-78
2020/12/04 12:32:24;;;;;;;23.67;16.92;;;;;;;;;;5081542;28;20184;-79
2020/12/04 12:35:04;;;;;;;24.65;17.95;;;;;;;;;;5078346;28;20167;-78
2020/12/04 12:37:31;;;;;;;30.60;18.85;;;;;;;;;;5087670;28;20195;-78
2020/12/04 12:39:58;;;;;;;26.52;17.65;;;;;;;;;;5088421;28;20267;-77
2020/12/04 12:42:24;;;;;;;24.40;17.00;;;;;;;;;;5075975;28;20182;-76
2020/12/04 12:44:50;;;;;;;26.30;18.13;;;;;;;;;;5076088;28;20267;-76
2020/12/04 12:47:17;;;;;;;28.25;17.35;;;;;;;;;;5081718;28;20176;-77
2020/12/04 12:49:45;;;;;;;26.23;17.90;;;;;;;;;;5077603;28;20180;-78
2020/12/04 12:52:11;;;;;;;23.67;15.68;;;;;;;;;;5086417;28;20231;-78
2020/12/04 12:54:37;;;;;;;25.30;16.90;;;;;;;;;;5087630;28;20190;-76
2020/12/04 12:57:03;;;;;;;25.40;17.10;;;;;;;;;;5086503;28;20179;-78
2020/12/04 12:59:29;;;;;;;26.40;17.88;;;;;;;;;;5092055;28;20536;-79
2020/12/04 13:01:56;;;;;;;26.58;17.40;;;;;;;;;;5091192;28;20264;-79
2020/12/04 13:04:23;;;;;;;25.70;17.83;;;;;;;;;;5079080;28;20185;-79
2020/12/04 13:06:49;;;;;;;27.55;17.23;;;;;;;;;;5080814;28;20186;-77
2020/12/04 13:09:16;;;;;;;26.52;17.80;;;;;;;;;;5078994;28;20212;-76
2020/12/04 13:11:42;;;;;;;27.50;17.73;;;;;;;;;;5083029;28;20731;-77
2020/12/04 13:14:08;;;;;;;22.08;16.98;;;;;;;;;;5077946;28;20261;-78
2020/12/04 13:16:37;;;;;;;23.10;16.63;;;;;;;;;;5075439;28;20294;-76
2020/12/04 13:19:03;;;;;;;26.10;18.00;;;;;;;;;;5076699;28;20204;-77
2020/12/04 13:24:14;;;;;;;26.02;17.15;;;;;;;;;;5086846;28;20241;-78
2020/12/04 13:26:40;;;;;;;26.23;16.05;;;;;;;;;;5090256;28;20187;-78
2020/12/04 13:29:07;;;;;;;23.60;15.90;;;;;;;;;;5088487;28;20318;-77
2020/12/04 13:31:33;;;;;;;24.83;16.90;;;;;;;;;;5088999;28;20187;-77
2020/12/04 13:33:59;;;;;;;27.83;18.17;;;;;;;;;;5087613;28;20211;-78
2020/12/04 13:36:26;;;;;;;26.38;18.40;;;;;;;;;;5084549;28;20191;-78
2020/12/04 13:38:52;;;;;;;29.95;18.90;;;;;;;;;;5082948;28;20197;-78
2020/12/04 13:41:18;;;;;;;29.70;20.20;;;;;;;;;;5082482;28;20188;-77
2020/12/04 13:43:44;;;;;;;27.10;17.95;;;;;;;;;;5091307;28;20176;-78
2020/12/04 13:46:10;;;;;;;30.40;18.05;;;;;;;;;;5086462;28;20192;-76
2020/12/04 13:48:36;;;;;;;28.65;18.92;;;;;;;;;;5073538;28;20207;-77
2020/12/04 13:51:03;;;;;;;29.15;17.25;;;;;;;;;;5085608;28;20217;-76
2020/12/04 13:53:29;;;;;;;27.85;19.10;;;;;;;;;;5078801;28;20215;-77
2020/12/04 13:55:55;;;;;;;23.75;17.33;;;;;;;;;;5088155;28;20190;-78
2020/12/04 13:58:21;;;;;;;22.67;16.42;;;;;;;;;;5091773;28;20260;-75
2020/12/04 14:00:47;;;;;;;29.10;17.98;;;;;;;;;;5086784;28;20859;-76
2020/12/04 14:03:13;;;;;;;26.58;17.17;;;;;;;;;;5071337;28;20983;-79
2020/12/04 14:05:39;;;;;;;25.33;18.08;;;;;;;;;;5085577;28;20191;-76
2020/12/04 14:08:05;;;;;;;28.88;18.23;;;;;;;;;;5089661;28;20586;-76
2020/12/04 14:10:32;;;;;;;26.90;17.67;;;;;;;;;;5089217;28;20191;-77
2020/12/04 14:12:58;;;;;;;26.42;17.35;;;;;;;;;;5089152;28;20244;-80
2020/12/04 14:15:24;;;;;;;28.15;18.60;;;;;;;;;;5089960;28;20186;-78
2020/12/04 14:17:50;;;;;;;28.25;18.42;;;;;;;;;;5085710;28;20188;-77
2020/12/04 14:20:16;;;;;;;24.48;16.85;;;;;;;;;;5079742;28;20183;-78
2020/12/04 14:22:42;;;;;;;28.45;18.40;;;;;;;;;;5087635;28;20179;-77